Bishops Corner, Connecticut
Current Conditions -  °F | °C
As of 1:53 AM on Sunday 23 Nov 2014 (Local Time) from KMMK Reporting Station
Few Clouds Few Clouds  
Wind Chill: 36°   Ceiling: Unl
Heat Index: 42°   Visibility: 10mi
Dew Point: 18°   Wind: 10mph
Humidity: 38%   Direction: 200°SSW
Pressure: 30.16"   Gusts: NA
Location:  41.5812°N, 72.8697°W
Report Text: KMMK 230653Z AUTO 20009KT 10SM FEW050 06/M08 A3016 RMK AO2 SLP213 T00561078 TSNO
Loading
Personal Weather Stations






























Interactive Weather Map New forecast layout! Learn more

10-Day Weather Forecast

Advertisements
Track Severe Weather on mobile